CPG6 weather

Port Elgin (Pryde Field) Airport
Port Elgin, Ontario, Canada

Public forecast

Using degrees Celsius for public forecast. Weather courtesy of forecast.io.

Closest aviation weather report (METAR) to Port Elgin (Pryde Field) Airport

Closest report is Wiarton Airport, 20.8 nm (38.5 km) NE. Retrieved 2019/12/09 09:00 UTC (59 minutes ago):

CYVV 090900Z 15004KT 3/4SM -DZ BR OVC006 03/03 A2981 RMK FG4SF4 SLP105

Closest aviation forecast (TAF) to Port Elgin (Pryde Field) Airport

Forecast is more than 12 hours old.

Closest forecast is Wiarton Airport, 20.8 nm (38.5 km) NE. Retrieved 2019/12/08 20:00 UTC (14 hours ago):

TAF CYVV 081938Z 0820/0824 19015G25KT P6SM BKN050 TEMPO 0820/0822 BKN020 OVC050 FM082200 21020G30KT P6SM OVC015 TEMPO 0822/0824 6SM -DZ BR OVC012 RMK NXT FCST WILL BE ISSUED AT 091145Z